createdAt,value
2022-12-16T00:00:12.382Z,101390.25
2022-12-16T00:03:02.723Z,101384.28
2022-12-16T00:05:52.067Z,101389.53
2022-12-16T00:08:42.910Z,101388.28
2022-12-16T00:11:32.813Z,101376.94
2022-12-16T00:14:22.145Z,101368.88
2022-12-16T00:17:11.502Z,101372.56
2022-12-16T00:20:02.887Z,101371.75
2022-12-16T00:22:53.583Z,101374.09
2022-12-16T00:25:46.455Z,101359.09
2022-12-16T00:28:36.147Z,101367.50
2022-12-16T00:31:25.563Z,101370.66
2022-12-16T00:34:14.969Z,101361.72
2022-12-16T00:37:04.620Z,101360.69
2022-12-16T00:39:53.997Z,101364.41
2022-12-16T00:42:45.864Z,101372.47
2022-12-16T00:45:35.531Z,101363.47
2022-12-16T00:48:25.721Z,101366.50
2022-12-16T00:51:15.023Z,101348.00
2022-12-16T00:54:04.473Z,101364.53
2022-12-16T00:56:54.581Z,101357.59
2022-12-16T00:59:46.019Z,101352.63
2022-12-16T01:02:35.365Z,101367.94
2022-12-16T01:05:27.131Z,101359.38
2022-12-16T01:08:16.759Z,101359.25
2022-12-16T01:11:06.344Z,101359.69
2022-12-16T01:13:55.684Z,101370.66
2022-12-16T01:16:46.358Z,101374.00
2022-12-16T01:19:35.675Z,101356.78
2022-12-16T01:22:25.092Z,101376.34
2022-12-16T01:25:14.712Z,101375.59
2022-12-16T01:28:04.300Z,101371.34
2022-12-16T01:31:02.080Z,101383.28
2022-12-16T01:33:52.866Z,101381.63
2022-12-16T01:36:42.093Z,101381.03
2022-12-16T01:39:31.633Z,101377.31
2022-12-16T01:42:24.055Z,101377.75
2022-12-16T01:45:35.362Z,101373.44
2022-12-16T01:48:40.205Z,101351.00
2022-12-16T01:51:35.993Z,101375.53
2022-12-16T01:54:30.449Z,101386.19
2022-12-16T01:57:25.123Z,101378.81
2022-12-16T02:00:16.206Z,101388.28
2022-12-16T02:03:06.449Z,101380.44
2022-12-16T02:05:56.504Z,101381.84
2022-12-16T02:08:47.531Z,101379.22
2022-12-16T02:12:19.381Z,101380.44
2022-12-16T02:15:36.922Z,101391.03
2022-12-16T02:18:41.726Z,101381.50
2022-12-16T02:22:04.542Z,101382.53
2022-12-16T02:25:25.848Z,101379.63
2022-12-16T02:28:29.569Z,101389.56
2022-12-16T02:31:30.975Z,101383.19
2022-12-16T02:34:31.027Z,101382.78
2022-12-16T02:37:32.775Z,101382.31
2022-12-16T02:40:29.916Z,101372.69
2022-12-16T02:43:36.332Z,101363.41
2022-12-16T02:46:32.064Z,101375.59
2022-12-16T02:50:01.479Z,101377.06
2022-12-16T02:52:52.188Z,101357.06
2022-12-16T02:55:58.545Z,101363.69
2022-12-16T02:58:59.117Z,101364.16
2022-12-16T03:02:00.021Z,101369.53
2022-12-16T03:04:56.469Z,101360.28
2022-12-16T03:07:47.141Z,101355.56
2022-12-16T03:10:42.594Z,101361.28
2022-12-16T03:13:38.830Z,101350.69
2022-12-16T03:16:34.764Z,101356.06
2022-12-16T03:19:27.790Z,101360.56
2022-12-16T03:22:22.295Z,101354.84
2022-12-16T03:25:12.200Z,101350.09
2022-12-16T03:28:12.967Z,101348.25
2022-12-16T03:31:15.394Z,101353.38
2022-12-16T03:34:13.188Z,101343.97
2022-12-16T03:37:07.253Z,101340.66
2022-12-16T03:40:00.024Z,101350.38
2022-12-16T03:42:50.630Z,101350.38
2022-12-16T03:45:44.090Z,101341.94
2022-12-16T03:48:34.271Z,101340.88
2022-12-16T03:51:24.468Z,101348.88
2022-12-16T03:54:15.131Z,101350.53
2022-12-16T03:57:05.084Z,101345.59
2022-12-16T03:59:54.400Z,101335.28
2022-12-16T04:02:44.701Z,101323.59
2022-12-16T04:05:34.224Z,101325.06
2022-12-16T04:08:23.616Z,101337.31
2022-12-16T04:11:31.863Z,101343.97
2022-12-16T04:14:38.240Z,101345.00
2022-12-16T04:17:45.264Z,101341.94
2022-12-16T04:20:55.716Z,101344.38
2022-12-16T04:24:06.882Z,101356.56
2022-12-16T04:27:15.804Z,101341.72
2022-12-16T04:30:21.968Z,101340.06
2022-12-16T04:33:32.306Z,101334.09
2022-12-16T04:36:39.304Z,101336.09
2022-12-16T04:39:45.739Z,101335.28
2022-12-16T04:42:53.669Z,101331.59
2022-12-16T04:45:59.993Z,101321.28
2022-12-16T04:49:18.166Z,101327.22
2022-12-16T04:52:24.999Z,101324.06
2022-12-16T04:55:32.082Z,101320.69
2022-12-16T04:58:40.052Z,101318.59
2022-12-16T05:01:46.709Z,101324.19
2022-12-16T05:04:53.404Z,101328.75
2022-12-16T05:07:59.747Z,101325.69
2022-12-16T05:11:06.225Z,101319.50
2022-12-16T05:14:14.283Z,101318.88
2022-12-16T05:17:20.726Z,101314.34
2022-12-16T05:20:28.321Z,101310.84
2022-12-16T05:23:40.401Z,101310.09
2022-12-16T05:26:47.081Z,101303.88
2022-12-16T05:29:55.004Z,101300.19
2022-12-16T05:33:01.812Z,101300.84
2022-12-16T05:36:08.975Z,101311.13
2022-12-16T05:39:16.292Z,101308.66
2022-12-16T05:42:23.370Z,101303.06
2022-12-16T05:45:31.658Z,101304.13
2022-12-16T05:48:40.051Z,101303.75
2022-12-16T05:51:49.967Z,101295.91
2022-12-16T05:54:56.342Z,101305.44
2022-12-16T05:58:03.322Z,101298.88
2022-12-16T06:01:11.393Z,101298.88
2022-12-16T06:04:18.401Z,101297.22
2022-12-16T06:07:24.964Z,101299.25
2022-12-16T06:10:32.056Z,101297.97
2022-12-16T06:13:38.390Z,101296.34
2022-12-16T06:16:46.559Z,101288.75
2022-12-16T06:19:49.779Z,101276.59
2022-12-16T06:22:56.498Z,101285.59
2022-12-16T06:26:03.448Z,101283.97
2022-12-16T06:29:10.780Z,101274.38
2022-12-16T06:32:18.913Z,101287.09
2022-12-16T06:35:26.599Z,101294.34
2022-12-16T06:38:41.950Z,101279.09
2022-12-16T06:41:48.748Z,101286.47
2022-12-16T06:44:55.464Z,101292.53
2022-12-16T06:48:03.575Z,101296.03
2022-12-16T06:51:09.894Z,101301.78
2022-12-16T06:54:16.380Z,101296.84
2022-12-16T06:57:23.475Z,101301.63
2022-12-16T07:00:31.571Z,101300.13
2022-12-16T07:03:39.829Z,101291.72
2022-12-16T07:06:47.019Z,101289.63
2022-12-16T07:09:53.969Z,101295.81
2022-12-16T07:13:00.453Z,101297.91
2022-12-16T07:16:07.437Z,101292.75
2022-12-16T07:19:15.658Z,101284.53
2022-12-16T07:22:22.676Z,101290.72
2022-12-16T07:25:29.791Z,101295.50
2022-12-16T07:28:36.504Z,101290.13
2022-12-16T07:31:48.905Z,101293.25
2022-12-16T07:34:57.167Z,101299.81
2022-12-16T07:38:04.014Z,101295.72
2022-12-16T07:41:10.880Z,101295.72
2022-12-16T07:44:17.286Z,101293.19
2022-12-16T07:47:24.314Z,101289.53
2022-12-16T07:50:32.266Z,101298.19
2022-12-16T07:53:39.724Z,101300.25
2022-12-16T07:56:46.894Z,101290.41
2022-12-16T07:59:53.258Z,101305.22
2022-12-16T08:03:00.342Z,101305.22
2022-12-16T08:06:09.932Z,101308.97
2022-12-16T08:09:16.819Z,101308.16
2022-12-16T08:12:24.024Z,101312.09
2022-12-16T08:15:31.033Z,101310.47
2022-12-16T08:18:37.919Z,101317.47
2022-12-16T08:21:46.085Z,101307.78
2022-12-16T08:24:53.804Z,101297.31
2022-12-16T08:28:03.313Z,101306.78
2022-12-16T08:31:10.390Z,101302.28
2022-12-16T08:34:17.478Z,101308.88
2022-12-16T08:37:26.287Z,101308.22
2022-12-16T08:40:35.636Z,101316.28
2022-12-16T08:43:42.411Z,101299.25
2022-12-16T08:46:49.282Z,101321.06
2022-12-16T08:49:57.912Z,101320.88
2022-12-16T08:53:10.843Z,101306.72
2022-12-16T08:56:17.960Z,101327.50
2022-12-16T08:59:24.975Z,101335.13
2022-12-16T09:02:32.057Z,101330.59
2022-12-16T09:05:38.660Z,101335.97
2022-12-16T09:08:46.660Z,101328.72
2022-12-16T09:11:53.018Z,101329.16
2022-12-16T09:14:59.479Z,101326.88
2022-12-16T09:18:13.098Z,101335.50
2022-12-16T09:21:20.127Z,101340.44
2022-12-16T09:24:28.654Z,101337.56
2022-12-16T09:27:35.164Z,101332.38
2022-12-16T09:30:42.355Z,101328.06
2022-12-16T09:33:49.368Z,101335.03
2022-12-16T09:36:55.923Z,101335.47
2022-12-16T09:40:04.142Z,101326.81
2022-12-16T09:43:18.517Z,101340.78
2022-12-16T09:46:34.166Z,101334.16
2022-12-16T09:49:55.393Z,101338.22
2022-12-16T09:53:08.512Z,101336.28
2022-12-16T09:56:17.997Z,101328.25
2022-12-16T09:59:29.880Z,101336.38
2022-12-16T10:02:38.456Z,101334.69
2022-12-16T10:05:59.494Z,101334.28
2022-12-16T10:09:15.731Z,101331.13
2022-12-16T10:12:35.913Z,101341.59
2022-12-16T10:15:57.788Z,101334.94
2022-12-16T10:19:14.033Z,101335.13
2022-12-16T10:22:30.090Z,101336.53
2022-12-16T10:25:40.714Z,101339.38
2022-12-16T10:29:03.926Z,101338.50
2022-12-16T10:32:10.347Z,101333.25
2022-12-16T10:35:16.833Z,101332.97
2022-12-16T10:38:36.960Z,101312.66
2022-12-16T10:41:48.282Z,101313.19
2022-12-16T10:45:06.460Z,101317.56
2022-12-16T10:48:13.266Z,101311.88
2022-12-16T10:51:19.862Z,101307.13
2022-12-16T10:54:50.522Z,101292.81
2022-12-16T10:58:14.863Z,101300.06
2022-12-16T11:01:38.893Z,101308.31
2022-12-16T11:04:52.026Z,101296.59
2022-12-16T11:08:12.298Z,101291.41
2022-12-16T11:11:34.232Z,101306.81
2022-12-16T11:15:05.601Z,101283.69
2022-12-16T11:18:23.729Z,101297.50
2022-12-16T11:21:34.118Z,101293.03
2022-12-16T11:24:41.103Z,101286.09
2022-12-16T11:27:53.544Z,101280.94
2022-12-16T11:31:00.398Z,101285.03
2022-12-16T11:34:09.556Z,101282.81
2022-12-16T11:37:21.013Z,101275.78
2022-12-16T11:40:33.481Z,101277.84
2022-12-16T11:43:42.542Z,101274.28
2022-12-16T11:46:49.584Z,101267.09
2022-12-16T11:49:59.083Z,101266.13
2022-12-16T11:53:14.504Z,101260.00
2022-12-16T11:56:21.679Z,101258.69
2022-12-16T11:59:39.453Z,101251.06
2022-12-16T12:02:54.739Z,101254.56
2022-12-16T12:06:17.672Z,101257.19
2022-12-16T12:09:32.122Z,101255.53
2022-12-16T12:12:50.133Z,101254.34
2022-12-16T12:16:03.445Z,101233.63
2022-12-16T12:19:16.218Z,101239.72
2022-12-16T12:22:36.998Z,101244.13
2022-12-16T12:25:56.050Z,101239.53
2022-12-16T12:29:10.702Z,101229.66
2022-12-16T12:32:36.785Z,101230.06
2022-12-16T12:35:59.338Z,101235.28
2022-12-16T12:39:26.050Z,101227.00
2022-12-16T12:42:49.776Z,101220.94
2022-12-16T12:46:27.715Z,101224.47
2022-12-16T12:49:43.880Z,101226.44
2022-12-16T12:53:23.358Z,101210.69
2022-12-16T12:56:48.114Z,101194.66
2022-12-16T13:00:07.680Z,101212.69
2022-12-16T13:03:24.320Z,101214.38
2022-12-16T13:06:33.403Z,101199.38
2022-12-16T13:09:48.307Z,101210.47
2022-12-16T13:12:56.399Z,101206.13
2022-12-16T13:16:03.128Z,101211.81
2022-12-16T13:20:02.334Z,101199.81
2022-12-16T13:23:09.006Z,101210.00
2022-12-16T13:26:24.154Z,101187.16
2022-12-16T13:29:40.390Z,101194.47
2022-12-16T13:32:47.442Z,101185.25
2022-12-16T13:35:54.286Z,101176.41
2022-12-16T13:39:06.071Z,101179.16
2022-12-16T13:42:19.795Z,101163.41
2022-12-16T13:45:56.576Z,101184.06
2022-12-16T13:49:03.756Z,101180.53
2022-12-16T13:52:20.796Z,101190.81
2022-12-16T13:55:38.003Z,101190.69
2022-12-16T13:58:56.423Z,101185.28
2022-12-16T14:02:12.696Z,101180.69
2022-12-16T14:05:19.922Z,101194.53
2022-12-16T14:08:35.262Z,101186.63
2022-12-16T14:11:55.187Z,101179.78
2022-12-16T14:15:08.388Z,101183.03
2022-12-16T14:18:21.964Z,101172.97
2022-12-16T14:21:35.522Z,101180.78
2022-12-16T14:24:45.633Z,101174.84
2022-12-16T14:28:08.829Z,101164.28
2022-12-16T14:31:24.303Z,101151.09
2022-12-16T14:34:38.833Z,101166.78
2022-12-16T14:37:54.408Z,101158.66
2022-12-16T14:41:01.432Z,101160.31
2022-12-16T14:44:08.326Z,101157.03
2022-12-16T14:47:15.797Z,101143.72
2022-12-16T14:50:41.184Z,101170.50
2022-12-16T14:53:50.852Z,101157.25
2022-12-16T14:56:58.470Z,101143.88
2022-12-16T15:00:05.689Z,101155.56
2022-12-16T15:03:16.304Z,101147.50
2022-12-16T15:06:30.116Z,101156.22
2022-12-16T15:09:43.266Z,101165.09
2022-12-16T15:12:54.659Z,101164.50
2022-12-16T15:16:06.055Z,101158.56
2022-12-16T15:19:19.278Z,101152.78
2022-12-16T15:22:33.383Z,101146.00
2022-12-16T15:25:43.271Z,101143.03
2022-12-16T15:28:58.899Z,101148.72
2022-12-16T15:32:05.620Z,101161.50
2022-12-16T15:35:12.329Z,101144.31
2022-12-16T15:38:20.921Z,101146.00
2022-12-16T15:41:42.522Z,101147.16
2022-12-16T15:44:49.595Z,101151.88
2022-12-16T15:47:57.132Z,101153.59
2022-12-16T15:51:11.452Z,101156.53
2022-12-16T15:54:22.909Z,101157.38
2022-12-16T15:57:50.871Z,101151.44
2022-12-16T16:00:57.745Z,101154.88
2022-12-16T16:04:09.525Z,101134.50
2022-12-16T16:07:24.992Z,101155.13
2022-12-16T16:10:38.882Z,101144.69
2022-12-16T16:13:45.600Z,101156.66
2022-12-16T16:16:52.592Z,101165.63
2022-12-16T16:20:03.486Z,101166.13
2022-12-16T16:23:11.187Z,101149.03
2022-12-16T16:26:19.340Z,101155.00
2022-12-16T16:29:28.578Z,101148.28
2022-12-16T16:32:35.515Z,101149.56
2022-12-16T16:35:42.396Z,101147.22
2022-12-16T16:38:49.036Z,101152.06
2022-12-16T16:41:57.061Z,101146.94
2022-12-16T16:45:03.662Z,101149.13
2022-12-16T16:48:13.408Z,101151.81
2022-12-16T16:51:22.426Z,101123.88
2022-12-16T16:54:28.809Z,101143.78
2022-12-16T16:57:36.879Z,101130.31
2022-12-16T17:00:44.078Z,101120.19
2022-12-16T17:03:51.196Z,101141.59
2022-12-16T17:06:57.783Z,101138.38
2022-12-16T17:10:04.182Z,101139.13
2022-12-16T17:13:12.174Z,101140.44
2022-12-16T17:16:19.030Z,101138.75
2022-12-16T17:19:25.723Z,101149.19
2022-12-16T17:22:32.400Z,101145.41
2022-12-16T17:25:39.193Z,101134.09
2022-12-16T17:28:47.279Z,101131.13
2022-12-16T17:31:54.491Z,101137.97
2022-12-16T17:35:04.145Z,101128.50
2022-12-16T17:38:10.735Z,101122.00
2022-12-16T17:41:18.450Z,101119.22
2022-12-16T17:44:26.714Z,101126.69
2022-12-16T17:47:34.402Z,101123.97
2022-12-16T17:50:40.943Z,101113.13
2022-12-16T17:53:49.413Z,101116.91
2022-12-16T17:56:55.909Z,101131.75
2022-12-16T18:00:00.620Z,101112.53
2022-12-16T18:03:07.863Z,101119.03
2022-12-16T18:06:16.029Z,101122.22
2022-12-16T18:09:37.551Z,101111.09
2022-12-16T18:12:44.627Z,101105.34
2022-12-16T18:15:52.744Z,101126.25
2022-12-16T18:19:08.282Z,101113.03
2022-12-16T18:22:15.212Z,101117.34
2022-12-16T18:25:21.987Z,101124.63
2022-12-16T18:28:31.616Z,101116.31
2022-12-16T18:31:39.437Z,101099.16
2022-12-16T18:34:46.967Z,101113.06
2022-12-16T18:37:53.805Z,101088.94
2022-12-16T18:41:00.149Z,101116.91
2022-12-16T18:44:08.143Z,101116.81
2022-12-16T18:47:16.074Z,101110.91
2022-12-16T18:50:28.558Z,101122.81
2022-12-16T18:53:37.496Z,101143.97
2022-12-16T18:56:44.723Z,101116.00
2022-12-16T18:59:51.379Z,101140.47
2022-12-16T19:02:59.463Z,101119.56
2022-12-16T19:06:13.208Z,101123.69
2022-12-16T19:09:20.138Z,101129.06
2022-12-16T19:12:27.277Z,101132.53
2022-12-16T19:15:38.058Z,101140.75
2022-12-16T19:18:49.265Z,101123.63
2022-12-16T19:21:56.274Z,101126.59
2022-12-16T19:25:03.761Z,101129.91
2022-12-16T19:28:10.464Z,101127.81
2022-12-16T19:31:17.546Z,101133.72
2022-12-16T19:34:25.548Z,101135.06
2022-12-16T19:37:31.950Z,101139.75
2022-12-16T19:40:38.799Z,101153.06
2022-12-16T19:43:45.491Z,101148.19
2022-12-16T19:46:55.855Z,101138.38
2022-12-16T19:50:04.640Z,101122.09
2022-12-16T19:53:11.959Z,101145.69
2022-12-16T19:56:19.838Z,101150.56
2022-12-16T19:59:27.372Z,101143.97
2022-12-16T20:02:35.036Z,101140.94
2022-12-16T20:05:43.511Z,101154.66
2022-12-16T20:08:50.752Z,101096.94
2022-12-16T20:12:01.393Z,101143.03
2022-12-16T20:15:11.241Z,101151.34
2022-12-16T20:18:18.641Z,101128.81
2022-12-16T20:21:27.612Z,101130.25
2022-12-16T20:24:34.696Z,101132.22
2022-12-16T20:27:41.086Z,101113.00
2022-12-16T20:30:51.442Z,101120.56
2022-12-16T20:34:02.895Z,101117.06
2022-12-16T20:37:11.911Z,101097.03
2022-12-16T20:40:18.900Z,101117.13
2022-12-16T20:43:25.725Z,101111.91
2022-12-16T20:46:32.677Z,101106.84
2022-12-16T20:49:40.003Z,101122.91
2022-12-16T20:52:56.606Z,101122.13
2022-12-16T20:56:03.300Z,101092.09
2022-12-16T20:59:10.135Z,101114.31
2022-12-16T21:02:27.905Z,101110.31
2022-12-16T21:05:38.697Z,101113.88
2022-12-16T21:08:47.390Z,101070.19
2022-12-16T21:15:21.019Z,101111.28
2022-12-16T21:18:27.837Z,101117.28
2022-12-16T21:21:34.995Z,101103.22
2022-12-16T21:24:43.166Z,101104.56
2022-12-16T21:27:49.737Z,101106.75
2022-12-16T21:30:56.953Z,101106.50
2022-12-16T21:34:04.150Z,101114.09
2022-12-16T21:37:10.894Z,101104.28
2022-12-16T21:40:21.397Z,101106.91
2022-12-16T21:43:28.021Z,101105.31
2022-12-16T21:46:34.469Z,101092.03
2022-12-16T21:49:41.661Z,101109.69
2022-12-16T21:52:48.756Z,101113.41
2022-12-16T21:55:56.921Z,101106.28
2022-12-16T21:59:03.535Z,101106.88
2022-12-16T22:02:10.617Z,101109.59
2022-12-16T22:05:17.070Z,101110.63
2022-12-16T22:08:40.398Z,101114.47
2022-12-16T22:11:50.981Z,101100.97
2022-12-16T22:14:58.893Z,101105.59
2022-12-16T22:18:05.886Z,101100.16
2022-12-16T22:21:17.704Z,101099.38
2022-12-16T22:24:24.797Z,101106.16
2022-12-16T22:27:32.903Z,101084.06
2022-12-16T22:30:39.575Z,101106.88
2022-12-16T22:33:46.615Z,101110.69
2022-12-16T22:36:21.850Z,101109.09
2022-12-16T22:36:59.308Z,101111.22
2022-12-16T22:40:06.013Z,101114.47
2022-12-16T22:43:14.266Z,101109.00
2022-12-16T22:46:21.856Z,101114.97
2022-12-16T22:49:28.647Z,101113.41
2022-12-16T22:52:35.355Z,101117.25
2022-12-16T22:55:42.155Z,101125.38
2022-12-16T22:58:50.090Z,101127.84
2022-12-16T23:01:57.198Z,101137.91
2022-12-16T23:05:03.860Z,101133.09
2022-12-16T23:08:10.803Z,101121.00
2022-12-16T23:11:18.928Z,101122.59
2022-12-16T23:14:26.878Z,101130.47
2022-12-16T23:17:33.947Z,101119.06
2022-12-16T23:20:40.515Z,101128.53
2022-12-16T23:23:47.422Z,101121.50
2022-12-16T23:26:54.406Z,101126.66
2022-12-16T23:30:04.313Z,101135.59
2022-12-16T23:33:16.219Z,101124.44
2022-12-16T23:36:23.910Z,101122.53
2022-12-16T23:39:31.035Z,101123.09
2022-12-16T23:42:37.631Z,101125.56
2022-12-16T23:45:45.898Z,101109.53
2022-12-16T23:48:52.523Z,101111.41
2022-12-16T23:52:00.339Z,101117.34
2022-12-16T23:55:06.814Z,101114.69
2022-12-16T23:58:17.793Z,101105.97
